sensor_id;sensor_type;location;lat;lon;timestamp;pressure;altitude;pressure_sealevel;temperature;humidity
6567;BME280;3317;43.994;22.878;2023-02-11T00:01:58;103091.13;;;-3.12;64.36
6567;BME280;3317;43.994;22.878;2023-02-11T00:04:25;103093.78;;;-3.09;64.47
6567;BME280;3317;43.994;22.878;2023-02-11T00:06:52;103091.97;;;-3.05;63.79
6567;BME280;3317;43.994;22.878;2023-02-11T00:09:19;103088.44;;;-3.06;63.73
6567;BME280;3317;43.994;22.878;2023-02-11T00:11:46;103083.13;;;-3.04;64.09
6567;BME280;3317;43.994;22.878;2023-02-11T00:14:15;103091.97;;;-3.02;64.06
6567;BME280;3317;43.994;22.878;2023-02-11T00:16:42;103076.06;;;-3.05;63.85
6567;BME280;3317;43.994;22.878;2023-02-11T00:19:09;103077.81;;;-3.04;64.53
6567;BME280;3317;43.994;22.878;2023-02-11T00:21:35;103088.44;;;-3.03;64.25
6567;BME280;3317;43.994;22.878;2023-02-11T00:24:03;103087.53;;;-3.00;63.81
6567;BME280;3317;43.994;22.878;2023-02-11T00:26:31;103065.47;;;-3.12;63.19
6567;BME280;3317;43.994;22.878;2023-02-11T00:29:00;103083.09;;;-3.00;63.27
6567;BME280;3317;43.994;22.878;2023-02-11T00:31:30;103084.03;;;-3.02;63.30
6567;BME280;3317;43.994;22.878;2023-02-11T00:33:57;103085.75;;;-2.98;63.40
6567;BME280;3317;43.994;22.878;2023-02-11T00:36:26;103054.00;;;-3.14;63.88
6567;BME280;3317;43.994;22.878;2023-02-11T00:38:54;103083.97;;;-2.96;63.67
6567;BME280;3317;43.994;22.878;2023-02-11T00:41:21;103084.84;;;-2.94;63.06
6567;BME280;3317;43.994;22.878;2023-02-11T00:43:49;103084.88;;;-2.97;63.03
6567;BME280;3317;43.994;22.878;2023-02-11T00:46:16;103085.75;;;-2.97;62.80
6567;BME280;3317;43.994;22.878;2023-02-11T00:48:44;103083.06;;;-2.95;62.87
6567;BME280;3317;43.994;22.878;2023-02-11T00:51:11;103078.69;;;-2.98;63.06
6567;BME280;3317;43.994;22.878;2023-02-11T00:53:39;103087.53;;;-2.95;63.21
6567;BME280;3317;43.994;22.878;2023-02-11T00:56:06;103055.75;;;-3.14;62.53
6567;BME280;3317;43.994;22.878;2023-02-11T00:58:33;103085.72;;;-2.95;62.40
6567;BME280;3317;43.994;22.878;2023-02-11T01:01:00;103092.81;;;-2.97;62.60
6567;BME280;3317;43.994;22.878;2023-02-11T01:03:27;103082.19;;;-2.99;63.03
6567;BME280;3317;43.994;22.878;2023-02-11T01:05:55;103078.66;;;-2.96;62.91
6567;BME280;3317;43.994;22.878;2023-02-11T01:08:22;103072.50;;;-3.01;62.80
6567;BME280;3317;43.994;22.878;2023-02-11T01:10:54;103077.78;;;-2.95;63.07
6567;BME280;3317;43.994;22.878;2023-02-11T01:13:21;103082.22;;;-2.95;63.03
6567;BME280;3317;43.994;22.878;2023-02-11T01:15:48;103079.56;;;-2.95;63.04
6567;BME280;3317;43.994;22.878;2023-02-11T01:18:15;103065.44;;;-3.04;63.04
6567;BME280;3317;43.994;22.878;2023-02-11T01:20:42;103074.25;;;-2.95;63.00
6567;BME280;3317;43.994;22.878;2023-02-11T01:23:10;103067.19;;;-3.00;63.04
6567;BME280;3317;43.994;22.878;2023-02-11T01:25:37;103069.81;;;-2.93;63.32
6567;BME280;3317;43.994;22.878;2023-02-11T01:28:04;103065.41;;;-2.94;63.24
6567;BME280;3317;43.994;22.878;2023-02-11T01:30:31;103063.59;;;-2.94;63.25
6567;BME280;3317;43.994;22.878;2023-02-11T01:32:58;103055.66;;;-2.92;62.85
6567;BME280;3317;43.994;22.878;2023-02-11T01:35:25;103042.38;;;-2.94;63.03
6567;BME280;3317;43.994;22.878;2023-02-11T01:37:52;103054.75;;;-2.93;62.87
6567;BME280;3317;43.994;22.878;2023-02-11T01:40:21;103051.22;;;-2.92;62.97
6567;BME280;3317;43.994;22.878;2023-02-11T01:42:47;103045.03;;;-2.91;63.07
6567;BME280;3317;43.994;22.878;2023-02-11T01:48:19;103029.13;;;-2.99;62.95
6567;BME280;3317;43.994;22.878;2023-02-11T01:50:50;103043.25;;;-2.90;62.84
6567;BME280;3317;43.994;22.878;2023-02-11T01:53:19;103042.34;;;-2.88;63.02
6567;BME280;3317;43.994;22.878;2023-02-11T01:56:05;103039.69;;;-2.86;62.84
6567;BME280;3317;43.994;22.878;2023-02-11T01:58:52;103034.38;;;-2.86;62.65
6567;BME280;3317;43.994;22.878;2023-02-11T02:01:22;103016.72;;;-2.93;62.57
6567;BME280;3317;43.994;22.878;2023-02-11T02:03:53;103037.91;;;-2.84;62.45
6567;BME280;3317;43.994;22.878;2023-02-11T02:06:26;103043.22;;;-2.87;62.09
6567;BME280;3317;43.994;22.878;2023-02-11T02:09:01;103039.69;;;-2.86;62.11
6567;BME280;3317;43.994;22.878;2023-02-11T02:11:31;103032.59;;;-2.87;62.47
6567;BME280;3317;43.994;22.878;2023-02-11T02:13:58;103029.06;;;-2.86;62.62
6567;BME280;3317;43.994;22.878;2023-02-11T02:16:29;103027.31;;;-2.84;62.27
6567;BME280;3317;43.994;22.878;2023-02-11T02:19:10;103033.47;;;-2.84;61.83
6567;BME280;3317;43.994;22.878;2023-02-11T02:22:05;103037.03;;;-2.85;62.19
6567;BME280;3317;43.994;22.878;2023-02-11T02:24:56;103030.84;;;-2.88;62.20
6567;BME280;3317;43.994;22.878;2023-02-11T02:27:36;103034.41;;;-2.88;62.23
6567;BME280;3317;43.994;22.878;2023-02-11T02:30:47;103033.53;;;-2.90;62.41
6567;BME280;3317;43.994;22.878;2023-02-11T02:33:24;103035.28;;;-2.92;62.23
6567;BME280;3317;43.994;22.878;2023-02-11T02:36:04;103035.28;;;-2.92;62.08
6567;BME280;3317;43.994;22.878;2023-02-11T02:38:38;103035.31;;;-2.93;62.09
6567;BME280;3317;43.994;22.878;2023-02-11T02:41:09;103033.53;;;-2.91;61.98
6567;BME280;3317;43.994;22.878;2023-02-11T02:43:40;103036.19;;;-2.93;61.64
6567;BME280;3317;43.994;22.878;2023-02-11T02:46:10;103027.38;;;-3.00;62.30
6567;BME280;3317;43.994;22.878;2023-02-11T02:48:38;103023.84;;;-3.00;62.31
6567;BME280;3317;43.994;22.878;2023-02-11T02:51:28;103029.13;;;-2.95;62.13
6567;BME280;3317;43.994;22.878;2023-02-11T02:54:19;103018.53;;;-2.97;61.92
6567;BME280;3317;43.994;22.878;2023-02-11T02:56:54;103019.44;;;-3.01;62.40
6567;BME280;3317;43.994;22.878;2023-02-11T02:59:30;103022.97;;;-2.98;62.37
6567;BME280;3317;43.994;22.878;2023-02-11T03:02:07;102934.81;;;-3.48;62.07
6567;BME280;3317;43.994;22.878;2023-02-11T03:04:45;103015.03;;;-3.04;62.08
6567;BME280;3317;43.994;22.878;2023-02-11T03:07:21;103013.22;;;-2.99;62.08
6567;BME280;3317;43.994;22.878;2023-02-11T03:09:55;103022.06;;;-2.97;62.08
6567;BME280;3317;43.994;22.878;2023-02-11T03:12:27;103016.75;;;-2.97;62.31
6567;BME280;3317;43.994;22.878;2023-02-11T03:14:56;103027.34;;;-2.93;61.66
6567;BME280;3317;43.994;22.878;2023-02-11T03:17:25;103018.50;;;-2.92;61.94
6567;BME280;3317;43.994;22.878;2023-02-11T03:19:56;103014.09;;;-2.93;61.62
6567;BME280;3317;43.994;22.878;2023-02-11T03:22:26;103021.16;;;-2.92;61.66
6567;BME280;3317;43.994;22.878;2023-02-11T03:24:56;103018.53;;;-2.95;61.33
6567;BME280;3317;43.994;22.878;2023-02-11T03:27:27;103016.75;;;-2.97;61.77
6567;BME280;3317;43.994;22.878;2023-02-11T03:30:00;103016.72;;;-2.93;61.34
6567;BME280;3317;43.994;22.878;2023-02-11T03:32:32;103015.00;;;-2.98;61.48
6567;BME280;3317;43.994;22.878;2023-02-11T03:35:05;103014.97;;;-2.96;61.58
6567;BME280;3317;43.994;22.878;2023-02-11T03:37:36;103014.97;;;-2.94;62.10
6567;BME280;3317;43.994;22.878;2023-02-11T03:40:09;103016.75;;;-2.97;62.50
6567;BME280;3317;43.994;22.878;2023-02-11T03:42:40;103007.91;;;-2.99;62.13
6567;BME280;3317;43.994;22.878;2023-02-11T03:45:11;103019.41;;;-2.97;62.36
6567;BME280;3317;43.994;22.878;2023-02-11T03:47:44;103009.66;;;-2.96;61.82
6567;BME280;3317;43.994;22.878;2023-02-11T03:50:15;102996.44;;;-3.05;61.52
6567;BME280;3317;43.994;22.878;2023-02-11T03:52:44;103001.72;;;-2.98;61.70
6567;BME280;3317;43.994;22.878;2023-02-11T03:55:15;103007.91;;;-2.97;61.48
6567;BME280;3317;43.994;22.878;2023-02-11T03:57:43;102998.22;;;-3.01;61.23
6567;BME280;3317;43.994;22.878;2023-02-11T04:00:11;103000.00;;;-3.03;61.28
6567;BME280;3317;43.994;22.878;2023-02-11T04:02:39;102996.44;;;-3.02;61.64
6567;BME280;3317;43.994;22.878;2023-02-11T04:05:08;102992.94;;;-3.11;61.52
6567;BME280;3317;43.994;22.878;2023-02-11T04:07:37;103004.38;;;-3.01;61.25
6567;BME280;3317;43.994;22.878;2023-02-11T04:10:05;103005.28;;;-3.02;61.09
6567;BME280;3317;43.994;22.878;2023-02-11T04:12:32;103000.00;;;-3.05;61.42
6567;BME280;3317;43.994;22.878;2023-02-11T04:14:59;102999.09;;;-3.04;61.17
6567;BME280;3317;43.994;22.878;2023-02-11T04:17:26;102990.28;;;-3.06;61.34
6567;BME280;3317;43.994;22.878;2023-02-11T04:19:52;102995.59;;;-3.06;61.05
6567;BME280;3317;43.994;22.878;2023-02-11T04:22:19;102991.13;;;-3.05;61.03
6567;BME280;3317;43.994;22.878;2023-02-11T04:24:48;102999.13;;;-3.07;60.80
6567;BME280;3317;43.994;22.878;2023-02-11T04:27:14;102985.00;;;-3.12;60.73
6567;BME280;3317;43.994;22.878;2023-02-11T04:29:41;102986.75;;;-3.08;61.11
6567;BME280;3317;43.994;22.878;2023-02-11T04:32:09;102988.53;;;-3.07;60.94
6567;BME280;3317;43.994;22.878;2023-02-11T04:34:36;102991.16;;;-3.07;60.73
6567;BME280;3317;43.994;22.878;2023-02-11T04:37:03;102983.22;;;-3.08;60.79
6567;BME280;3317;43.994;22.878;2023-02-11T04:39:30;102985.88;;;-3.10;60.95
6567;BME280;3317;43.994;22.878;2023-02-11T04:41:58;102977.03;;;-3.12;60.93
6567;BME280;3317;43.994;22.878;2023-02-11T04:44:27;102975.28;;;-3.12;60.64
6567;BME280;3317;43.994;22.878;2023-02-11T04:46:54;102974.41;;;-3.14;60.58
6567;BME280;3317;43.994;22.878;2023-02-11T04:49:21;102974.38;;;-3.12;60.83
6567;BME280;3317;43.994;22.878;2023-02-11T04:51:48;102971.75;;;-3.15;60.80
6567;BME280;3317;43.994;22.878;2023-02-11T04:54:15;102970.00;;;-3.15;60.73
6567;BME280;3317;43.994;22.878;2023-02-11T04:56:42;102977.94;;;-3.16;60.92
6567;BME280;3317;43.994;22.878;2023-02-11T04:59:10;102984.16;;;-3.19;60.85
6567;BME280;3317;43.994;22.878;2023-02-11T05:01:38;102983.28;;;-3.19;60.94
6567;BME280;3317;43.994;22.878;2023-02-11T05:04:06;102979.75;;;-3.18;60.86
6567;BME280;3317;43.994;22.878;2023-02-11T05:06:33;102978.88;;;-3.20;60.72
6567;BME280;3317;43.994;22.878;2023-02-11T05:09:00;102980.63;;;-3.19;60.71
6567;BME280;3317;43.994;22.878;2023-02-11T05:11:27;102985.06;;;-3.21;60.90
6567;BME280;3317;43.994;22.878;2023-02-11T05:13:53;102982.41;;;-3.21;61.02
6567;BME280;3317;43.994;22.878;2023-02-11T05:16:22;102979.75;;;-3.25;60.90
6567;BME280;3317;43.994;22.878;2023-02-11T05:18:49;102987.72;;;-3.23;60.90
6567;BME280;3317;43.994;22.878;2023-02-11T05:21:17;102996.56;;;-3.22;60.82
6567;BME280;3317;43.994;22.878;2023-02-11T05:23:44;102986.84;;;-3.23;60.82
6567;BME280;3317;43.994;22.878;2023-02-11T05:26:12;102977.16;;;-3.31;60.96
6567;BME280;3317;43.994;22.878;2023-02-11T05:28:39;102988.63;;;-3.29;61.05
6567;BME280;3317;43.994;22.878;2023-02-11T05:31:06;102989.53;;;-3.28;61.01
6567;BME280;3317;43.994;22.878;2023-02-11T05:33:35;102997.47;;;-3.30;61.49
6567;BME280;3317;43.994;22.878;2023-02-11T05:36:04;102993.94;;;-3.30;61.40
6567;BME280;3317;43.994;22.878;2023-02-11T05:38:31;102997.47;;;-3.30;61.25
6567;BME280;3317;43.994;22.878;2023-02-11T05:40:58;102993.97;;;-3.33;61.65
6567;BME280;3317;43.994;22.878;2023-02-11T05:43:25;103007.19;;;-3.30;61.33
6567;BME280;3317;43.994;22.878;2023-02-11T05:45:52;103002.75;;;-3.27;61.17
6567;BME280;3317;43.994;22.878;2023-02-11T05:48:19;103001.03;;;-3.31;61.73
6567;BME280;3317;43.994;22.878;2023-02-11T05:50:47;102997.50;;;-3.28;61.63
6567;BME280;3317;43.994;22.878;2023-02-11T05:53:14;103001.88;;;-3.24;61.83
6567;BME280;3317;43.994;22.878;2023-02-11T05:55:41;103001.00;;;-3.21;61.91
6567;BME280;3317;43.994;22.878;2023-02-11T05:58:08;103007.16;;;-3.19;62.00
6567;BME280;3317;43.994;22.878;2023-02-11T06:00:35;103008.03;;;-3.17;62.17
6567;BME280;3317;43.994;22.878;2023-02-11T06:03:02;103008.00;;;-3.14;62.27
6567;BME280;3317;43.994;22.878;2023-02-11T06:05:29;103002.69;;;-3.13;62.34
6567;BME280;3317;43.994;22.878;2023-02-11T06:07:58;103003.53;;;-3.07;62.50
6567;BME280;3317;43.994;22.878;2023-02-11T06:10:25;102980.59;;;-3.15;62.71
6567;BME280;3317;43.994;22.878;2023-02-11T06:12:52;102994.66;;;-3.00;62.55
6567;BME280;3317;43.994;22.878;2023-02-11T06:15:19;102997.28;;;-2.95;63.13
6567;BME280;3317;43.994;22.878;2023-02-11T06:17:46;103001.69;;;-2.90;62.82
6567;BME280;3317;43.994;22.878;2023-02-11T06:20:13;102939.91;;;-3.15;62.56
6567;BME280;3317;43.994;22.878;2023-02-11T06:22:40;102995.34;;;-2.72;62.50
6567;BME280;3317;43.994;22.878;2023-02-11T06:25:08;102994.44;;;-2.67;62.58
6567;BME280;3317;43.994;22.878;2023-02-11T06:27:36;102992.59;;;-2.62;62.36
6567;BME280;3317;43.994;22.878;2023-02-11T06:30:04;102999.59;;;-2.53;62.32
6567;BME280;3317;43.994;22.878;2023-02-11T06:32:31;103003.13;;;-2.50;62.27
6567;BME280;3317;43.994;22.878;2023-02-11T06:34:59;103002.19;;;-2.43;62.17
6567;BME280;3317;43.994;22.878;2023-02-11T06:37:26;102995.91;;;-2.35;62.46
6567;BME280;3317;43.994;22.878;2023-02-11T06:39:53;103003.81;;;-2.26;62.28
6567;BME280;3317;43.994;22.878;2023-02-11T06:42:21;103000.22;;;-2.19;62.26
6567;BME280;3317;43.994;22.878;2023-02-11T06:44:48;102995.69;;;-2.10;61.83
6567;BME280;3317;43.994;22.878;2023-02-11T06:47:15;103007.13;;;-2.02;61.81
6567;BME280;3317;43.994;22.878;2023-02-11T06:49:42;103006.19;;;-1.96;61.95
6567;BME280;3317;43.994;22.878;2023-02-11T06:52:09;103001.69;;;-1.90;61.86
6567;BME280;3317;43.994;22.878;2023-02-11T06:54:36;103001.59;;;-1.84;61.75
6567;BME280;3317;43.994;22.878;2023-02-11T06:57:03;103007.66;;;-1.72;61.67
6567;BME280;3317;43.994;22.878;2023-02-11T06:59:31;103005.75;;;-1.61;61.95
6567;BME280;3317;43.994;22.878;2023-02-11T07:01:58;103002.16;;;-1.53;61.89
6567;BME280;3317;43.994;22.878;2023-02-11T07:04:25;103005.56;;;-1.42;61.77
6567;BME280;3317;43.994;22.878;2023-02-11T07:06:52;103008.06;;;-1.33;61.82
6567;BME280;3317;43.994;22.878;2023-02-11T07:09:19;103003.44;;;-1.17;61.31
6567;BME280;3317;43.994;22.878;2023-02-11T07:11:46;102996.16;;;-1.05;61.36
6567;BME280;3317;43.994;22.878;2023-02-11T07:14:12;102990.75;;;-0.99;60.46
6567;BME280;3317;43.994;22.878;2023-02-11T07:16:41;102992.31;;;-0.86;60.26
6567;BME280;3317;43.994;22.878;2023-02-11T07:19:08;102991.22;;;-0.72;59.88
6567;BME280;3317;43.994;22.878;2023-02-11T07:21:35;102991.97;;;-0.64;59.66
6567;BME280;3317;43.994;22.878;2023-02-11T07:24:05;102994.44;;;-0.53;59.25
6567;BME280;3317;43.994;22.878;2023-02-11T07:26:32;102993.44;;;-0.46;58.79
6567;BME280;3317;43.994;22.878;2023-02-11T07:28:59;102990.50;;;-0.30;58.38
6567;BME280;3317;43.994;22.878;2023-02-11T07:31:27;102988.59;;;-0.22;58.75
6567;BME280;3317;43.994;22.878;2023-02-11T07:33:58;102992.78;;;-0.08;58.17
6567;BME280;3317;43.994;22.878;2023-02-11T07:36:26;102991.66;;;0.05;57.80
6567;BME280;3317;43.994;22.878;2023-02-11T07:38:53;102991.50;;;0.13;57.29
6567;BME280;3317;43.994;22.878;2023-02-11T07:41:23;102996.56;;;0.27;57.31
6567;BME280;3317;43.994;22.878;2023-02-11T07:43:51;102991.88;;;0.38;56.93
6567;BME280;3317;43.994;22.878;2023-02-11T07:46:19;102984.63;;;0.45;56.49
6567;BME280;3317;43.994;22.878;2023-02-11T07:48:47;102991.47;;;0.59;56.46
6567;BME280;3317;43.994;22.878;2023-02-11T07:51:17;102990.41;;;0.66;55.79
6567;BME280;3317;43.994;22.878;2023-02-11T07:53:44;102993.63;;;0.82;55.30
6567;BME280;3317;43.994;22.878;2023-02-11T07:56:13;102989.75;;;0.95;55.31
6567;BME280;3317;43.994;22.878;2023-02-11T07:58:40;103000.25;;;1.05;54.89
6567;BME280;3317;43.994;22.878;2023-02-11T08:01:09;102988.38;;;1.17;54.48
6567;BME280;3317;43.994;22.878;2023-02-11T08:03:37;102989.94;;;1.25;54.06
6567;BME280;3317;43.994;22.878;2023-02-11T08:06:05;102980.75;;;1.37;54.26
6567;BME280;3317;43.994;22.878;2023-02-11T08:08:33;102984.81;;;1.52;54.22
6567;BME280;3317;43.994;22.878;2023-02-11T08:11:05;102977.41;;;1.64;53.88
6567;BME280;3317;43.994;22.878;2023-02-11T08:13:32;102974.38;;;1.78;53.84
6567;BME280;3317;43.994;22.878;2023-02-11T08:15:59;102957.19;;;1.87;53.39
6567;BME280;3317;43.994;22.878;2023-02-11T08:18:26;102967.44;;;2.04;52.69
6567;BME280;3317;43.994;22.878;2023-02-11T08:20:53;102968.72;;;2.22;52.07
6567;BME280;3317;43.994;22.878;2023-02-11T08:23:20;102948.25;;;2.19;51.40
6567;BME280;3317;43.994;22.878;2023-02-11T08:25:48;102959.03;;;2.48;51.54
6567;BME280;3317;43.994;22.878;2023-02-11T08:28:15;102955.88;;;2.63;51.20
6567;BME280;3317;43.994;22.878;2023-02-11T08:30:42;102953.59;;;2.79;51.20
6567;BME280;3317;43.994;22.878;2023-02-11T08:33:09;102959.53;;;2.89;50.03
6567;BME280;3317;43.994;22.878;2023-02-11T08:35:36;102948.31;;;3.05;49.54
6567;BME280;3317;43.994;22.878;2023-02-11T08:38:04;102956.00;;;3.16;49.06
6567;BME280;3317;43.994;22.878;2023-02-11T08:40:31;102952.09;;;3.26;48.66
6567;BME280;3317;43.994;22.878;2023-02-11T08:42:59;102945.50;;;3.36;48.35
6567;BME280;3317;43.994;22.878;2023-02-11T08:45:26;102953.91;;;3.52;48.45
6567;BME280;3317;43.994;22.878;2023-02-11T08:47:53;102944.38;;;3.69;48.55
6567;BME280;3317;43.994;22.878;2023-02-11T08:50:20;102939.22;;;3.88;48.34
6567;BME280;3317;43.994;22.878;2023-02-11T08:52:47;102943.25;;;4.00;47.71
6567;BME280;3317;43.994;22.878;2023-02-11T08:55:14;102947.44;;;4.09;46.82
6567;BME280;3317;43.994;22.878;2023-02-11T08:57:41;102940.72;;;4.21;46.47
6567;BME280;3317;43.994;22.878;2023-02-11T09:00:10;102942.31;;;4.27;46.28
6567;BME280;3317;43.994;22.878;2023-02-11T09:02:38;102932.97;;;4.37;46.37
6567;BME280;3317;43.994;22.878;2023-02-11T09:05:05;102934.25;;;4.50;46.17
6567;BME280;3317;43.994;22.878;2023-02-11T09:07:32;102942.81;;;4.60;45.74
6567;BME280;3317;43.994;22.878;2023-02-11T09:09:59;102942.38;;;4.71;45.12
6567;BME280;3317;43.994;22.878;2023-02-11T09:12:26;102949.22;;;4.80;45.67
6567;BME280;3317;43.994;22.878;2023-02-11T09:14:53;102946.88;;;4.93;45.37
6567;BME280;3317;43.994;22.878;2023-02-11T09:17:21;102944.81;;;5.00;44.47
6567;BME280;3317;43.994;22.878;2023-02-11T09:19:49;102943.66;;;5.07;44.25
6567;BME280;3317;43.994;22.878;2023-02-11T09:22:16;102936.91;;;5.17;44.30
6567;BME280;3317;43.994;22.878;2023-02-11T09:24:42;102944.00;;;5.20;43.30
6567;BME280;3317;43.994;22.878;2023-02-11T09:27:09;102939.19;;;5.28;43.39
6567;BME280;3317;43.994;22.878;2023-02-11T09:29:36;102946.78;;;5.39;43.75
6567;BME280;3317;43.994;22.878;2023-02-11T09:32:04;102940.03;;;5.51;43.99
6567;BME280;3317;43.994;22.878;2023-02-11T09:34:32;102933.97;;;5.67;44.03
6567;BME280;3317;43.994;22.878;2023-02-11T09:36:59;102939.06;;;5.73;43.02
6567;BME280;3317;43.994;22.878;2023-02-11T09:39:26;102923.50;;;5.80;42.68
6567;BME280;3317;43.994;22.878;2023-02-11T09:42:15;102860.88;;;5.57;42.64
6567;BME280;3317;43.994;22.878;2023-02-11T09:44:46;102908.19;;;6.02;42.90
6567;BME280;3317;43.994;22.878;2023-02-11T09:47:23;102885.00;;;5.98;41.67
6567;BME280;3317;43.994;22.878;2023-02-11T09:49:57;102893.50;;;6.10;41.22
6567;BME280;3317;43.994;22.878;2023-02-11T09:52:31;102886.88;;;6.17;41.88
6567;BME280;3317;43.994;22.878;2023-02-11T09:55:01;102888.97;;;6.29;41.74
6567;BME280;3317;43.994;22.878;2023-02-11T09:57:31;102885.06;;;6.37;41.33
6567;BME280;3317;43.994;22.878;2023-02-11T09:59:59;102892.47;;;6.51;41.45
6567;BME280;3317;43.994;22.878;2023-02-11T10:02:35;102882.94;;;6.62;41.43
6567;BME280;3317;43.994;22.878;2023-02-11T10:05:26;102887.84;;;6.72;41.24
6567;BME280;3317;43.994;22.878;2023-02-11T10:08:02;102875.50;;;6.85;40.93
6567;BME280;3317;43.994;22.878;2023-02-11T10:10:43;102868.69;;;6.96;40.56
6567;BME280;3317;43.994;22.878;2023-02-11T10:13:32;102865.72;;;7.02;40.07
6567;BME280;3317;43.994;22.878;2023-02-11T10:16:17;102868.31;;;7.03;39.37
6567;BME280;3317;43.994;22.878;2023-02-11T10:19:08;102853.56;;;7.11;39.81
6567;BME280;3317;43.994;22.878;2023-02-11T10:21:46;102839.63;;;7.20;39.76
6567;BME280;3317;43.994;22.878;2023-02-11T10:24:17;102842.88;;;7.27;39.22
6567;BME280;3317;43.994;22.878;2023-02-11T10:26:45;102831.56;;;7.36;40.06
6567;BME280;3317;43.994;22.878;2023-02-11T10:29:22;102833.00;;;7.43;39.72
6567;BME280;3317;43.994;22.878;2023-02-11T10:31:52;102817.13;;;7.55;40.71
6567;BME280;3317;43.994;22.878;2023-02-11T10:34:19;102822.81;;;7.66;40.72
6567;BME280;3317;43.994;22.878;2023-02-11T10:36:48;102816.09;;;7.73;39.74
6567;BME280;3317;43.994;22.878;2023-02-11T10:39:16;102790.84;;;7.74;39.85
6567;BME280;3317;43.994;22.878;2023-02-11T10:41:46;102798.81;;;7.94;40.19
6567;BME280;3317;43.994;22.878;2023-02-11T10:44:22;102794.19;;;7.96;39.27
6567;BME280;3317;43.994;22.878;2023-02-11T10:46:50;102797.41;;;8.02;38.90
6567;BME280;3317;43.994;22.878;2023-02-11T10:49:35;102788.09;;;8.08;38.26
6567;BME280;3317;43.994;22.878;2023-02-11T10:52:16;102779.41;;;8.19;38.72
6567;BME280;3317;43.994;22.878;2023-02-11T10:54:59;102772.78;;;8.25;37.98
6567;BME280;3317;43.994;22.878;2023-02-11T10:57:29;102760.63;;;8.32;37.91
6567;BME280;3317;43.994;22.878;2023-02-11T10:59:58;102743.38;;;8.35;39.08
6567;BME280;3317;43.994;22.878;2023-02-11T11:02:29;102750.16;;;8.58;39.42
6567;BME280;3317;43.994;22.878;2023-02-11T11:05:00;102745.75;;;8.71;39.88
6567;BME280;3317;43.994;22.878;2023-02-11T11:07:30;102740.06;;;8.76;38.87
6567;BME280;3317;43.994;22.878;2023-02-11T11:10:00;102738.38;;;8.90;38.74
6567;BME280;3317;43.994;22.878;2023-02-11T11:12:31;102741.75;;;8.93;37.68
6567;BME280;3317;43.994;22.878;2023-02-11T11:15:02;102731.16;;;9.05;39.69
6567;BME280;3317;43.994;22.878;2023-02-11T11:17:29;102724.50;;;9.10;38.18
6567;BME280;3317;43.994;22.878;2023-02-11T11:20:21;102723.25;;;9.16;36.84
6567;BME280;3317;43.994;22.878;2023-02-11T11:22:53;102720.13;;;9.22;37.64
6567;BME280;3317;43.994;22.878;2023-02-11T11:25:34;102719.28;;;9.22;36.39
6567;BME280;3317;43.994;22.878;2023-02-11T11:28:04;102711.16;;;9.22;36.15
6567;BME280;3317;43.994;22.878;2023-02-11T11:30:33;102700.44;;;9.35;39.17
6567;BME280;3317;43.994;22.878;2023-02-11T11:33:16;102704.50;;;9.42;36.24
6567;BME280;3317;43.994;22.878;2023-02-11T11:35:54;102704.00;;;9.50;35.36
6567;BME280;3317;43.994;22.878;2023-02-11T11:38:25;102707.19;;;9.56;36.46
6567;BME280;3317;43.994;22.878;2023-02-11T11:41:14;102696.06;;;9.61;35.76
6567;BME280;3317;43.994;22.878;2023-02-11T11:43:53;102688.78;;;9.62;33.77
6567;BME280;3317;43.994;22.878;2023-02-11T11:46:23;102687.81;;;9.63;34.27
6567;BME280;3317;43.994;22.878;2023-02-11T11:48:54;102622.34;;;9.43;39.14
6567;BME280;3317;43.994;22.878;2023-02-11T11:51:23;102679.06;;;9.86;38.01
6567;BME280;3317;43.994;22.878;2023-02-11T11:53:56;102680.28;;;9.95;39.33
6567;BME280;3317;43.994;22.878;2023-02-11T11:56:26;102671.75;;;10.02;36.76
6567;BME280;3317;43.994;22.878;2023-02-11T11:58:54;102671.69;;;10.16;40.33
6567;BME280;3317;43.994;22.878;2023-02-11T12:01:32;102663.06;;;10.24;38.08
6567;BME280;3317;43.994;22.878;2023-02-11T12:04:16;102663.78;;;10.13;33.65
6567;BME280;3317;43.994;22.878;2023-02-11T12:06:55;102649.13;;;10.15;36.45
6567;BME280;3317;43.994;22.878;2023-02-11T12:09:34;102641.47;;;10.22;37.87
6567;BME280;3317;43.994;22.878;2023-02-11T12:12:24;102634.44;;;10.20;36.26
6567;BME280;3317;43.994;22.878;2023-02-11T12:15:07;102639.72;;;10.21;34.41
6567;BME280;3317;43.994;22.878;2023-02-11T12:17:50;102633.88;;;10.14;32.88
6567;BME280;3317;43.994;22.878;2023-02-11T12:20:28;102610.19;;;9.91;33.34
6567;BME280;3317;43.994;22.878;2023-02-11T12:23:13;102634.81;;;10.00;34.77
6567;BME280;3317;43.994;22.878;2023-02-11T12:25:47;102628.44;;;10.02;36.99
6567;BME280;3317;43.994;22.878;2023-02-11T12:28:25;102619.88;;;10.08;39.06
6567;BME280;3317;43.994;22.878;2023-02-11T12:31:07;102608.84;;;10.11;37.55
6567;BME280;3317;43.994;22.878;2023-02-11T12:33:56;102601.56;;;10.11;36.74
6567;BME280;3317;43.994;22.878;2023-02-11T12:36:38;102599.63;;;10.13;37.64
6567;BME280;3317;43.994;22.878;2023-02-11T12:39:19;102593.34;;;10.13;38.98
6567;BME280;3317;43.994;22.878;2023-02-11T12:45:11;102589.22;;;10.07;37.53
6567;BME280;3317;43.994;22.878;2023-02-11T12:47:49;102578.34;;;9.94;36.79
6567;BME280;3317;43.994;22.878;2023-02-11T12:50:23;102583.75;;;9.94;38.99
6567;BME280;3317;43.994;22.878;2023-02-11T12:53:01;102580.28;;;9.92;37.02
6567;BME280;3317;43.994;22.878;2023-02-11T12:55:35;102577.69;;;9.91;38.53
6567;BME280;3317;43.994;22.878;2023-02-11T12:58:06;102571.78;;;9.84;37.35
6567;BME280;3317;43.994;22.878;2023-02-11T13:00:43;102521.69;;;9.51;37.80
6567;BME280;3317;43.994;22.878;2023-02-11T13:03:17;102565.03;;;9.64;36.26
6567;BME280;3317;43.994;22.878;2023-02-11T13:05:49;102561.69;;;9.60;39.35
6567;BME280;3317;43.994;22.878;2023-02-11T13:08:21;102558.69;;;9.50;37.62
6567;BME280;3317;43.994;22.878;2023-02-11T13:10:54;102557.13;;;9.33;36.45
6567;BME280;3317;43.994;22.878;2023-02-11T13:13:26;102550.56;;;9.23;37.44
6567;BME280;3317;43.994;22.878;2023-02-11T13:15:58;102537.25;;;9.05;38.42
6567;BME280;3317;43.994;22.878;2023-02-11T13:18:43;102546.47;;;9.02;37.34
6567;BME280;3317;43.994;22.878;2023-02-11T13:21:40;102540.00;;;8.91;38.39
6567;BME280;3317;43.994;22.878;2023-02-11T13:24:21;102533.25;;;8.83;39.05
6567;BME280;3317;43.994;22.878;2023-02-11T13:26:56;102474.56;;;8.42;40.08
6567;BME280;3317;43.994;22.878;2023-02-11T13:29:39;102539.44;;;8.71;40.41
6567;BME280;3317;43.994;22.878;2023-02-11T13:32:14;102527.38;;;8.62;40.23